Terminal Aerodrome Forecast
Issued by NWS Bismarck, ND

Home | Current Version | Previous Version | Graphics & Text | Print | Product List | Glossary On
Versions: 1 2 3 4 5 6 7 8 9 10 11 12 13 14 15
000
FTUS43 KBIS 200500
TAFBIS
TAF
KBIS 200539Z 2006/2106 30005KT P6SM FEW080 FEW110
     FM201400 28007KT P6SM SCT050 BKN090
     FM201700 30020G30KT P6SM SCT045 BKN070
     FM202000 32022G31KT P6SM SKC
     FM210100 31005KT P6SM SKC=

USA.gov is the U.S. government's official web portal to all federal, state and local government web resources and services.